M I D A S
Marine Information and Data Acquisition System
Tripno 1530 of the Zeeleeuw from 2008-07-31 07:58:34 to 2008-07-31 15:05:41
Back to CruiseResearch ActivitiesStationsMapUnderway DataData graphs

EquipmentUnitsComment
TimeDGPSUTC
LatitudeDGPSDM.mWGS84
LongitudeDGPSDM.mWGS84
TemperatureSBE03/SBE38deg celciusITS90
ConductivitySBE21S/mITS90
SalinitySBE21 Practical Salinity Units
ChlorophylAChelsea fluorimeterg/lCalibrated in Aceton
Missing or incorrect values are displayed as -999
Sea surface data collected by the RV Zeeleeuw from 2008-07-31 07:56:53 to 2008-07-31 15:08:53
Time Latitude Longitude Temperature Conductivity Salinity ChlorophylA
2008-07-31 07:57:58 51°13.642 2°55.989 24.0905 0.015555 0.076463 -1.522929
2008-07-31 07:58:59 51°13.668 2°55.897 24.0939 0.015555 0.076463 -1.522929
2008-07-31 07:59:59 51°13.698 2°55.816 24.0984 0.015555 0.076463 -1.522929
2008-07-31 08:00:58 51°13.718 2°55.751 24.1046 0.015555 0.076461 -1.522929
2008-07-31 08:01:59 51°13.725 2°55.702 24.1088 0.015555 0.076459 -1.522929
2008-07-31 08:02:58 51°13.727 2°55.691 24.1156 0.015555 0.076458 -1.522929
2008-07-31 08:03:59 51°13.733 2°55.694 24.1219 0.015555 0.076457 -1.488105
2008-07-31 08:04:58 51°13.733 2°55.687 21.3365 4.274356 28.263694 3.143494
2008-07-31 08:05:58 51°13.732 2°55.682 21.0152 4.188577 29.119135 4.640929
2008-07-31 08:06:59 51°13.733 2°55.678 20.9649 4.162851 29.075361 4.675753
2008-07-31 08:07:58 51°13.804 2°55.646 20.8957 4.160673 29.097663 4.710577
2008-07-31 08:08:58 51°13.905 2°55.57 20.8308 4.136813 28.94892 5.720474
2008-07-31 08:09:58 51°13.997 2°55.498 20.7635 4.208296 29.573137 5.33741
2008-07-31 08:10:58 51°14.097 2°55.424 20.7538 4.199997 29.541903 4.849873
2008-07-31 08:11:58 51°14.193 2°55.338 20.7331 4.245859 29.913495 4.815049
2008-07-31 08:12:59 51°14.28 2°55.221 20.727 4.249906 29.952793 6.033891
2008-07-31 08:13:58 51°14.354 2°55.083 20.7422 4.273876 30.148817 6.660724
2008-07-31 08:14:58 51°14.457 2°54.894 20.7667 4.335001 30.617689 7.217908
2008-07-31 08:15:58 51°14.625 2°54.738 20.7604 4.42987 31.35393 6.451779
2008-07-31 08:16:58 51°14.811 2°54.634 20.7358 4.462985 31.622178 5.616002
2008-07-31 08:17:57 51°14.999 2°54.563 20.6866 4.475548 31.756949 5.476706
2008-07-31 08:18:54 51°15.179 2°54.498 20.6236 4.472226 31.754527 5.68565
2008-07-31 08:19:55 51°15.372 2°54.431 20.5743 4.469943 31.791208 4.640929
2008-07-31 08:20:55 51°15.563 2°54.371 20.538 4.468283 31.806047 4.362336
2008-07-31 08:21:54 51°15.752 2°54.31 20.4943 4.466726 31.829207 4.083744
2008-07-31 08:22:54 51°15.943 2°54.254 20.4879 4.471294 31.87882 4.327512
2008-07-31 08:23:55 51°16.137 2°54.213 20.4987 4.467661 31.860212 5.232937
2008-07-31 08:24:55 51°16.313 2°54.136 20.4922 4.454892 31.752717 5.372234
2008-07-31 08:25:54 51°16.427 2°53.96 20.6073 4.45375 31.748777 5.372234
2008-07-31 08:26:55 51°16.542 2°53.783 20.5591 4.469216 31.763144 4.780225
2008-07-31 08:27:55 51°16.657 2°53.618 20.4391 4.494964 32.027098 7.217908
2008-07-31 08:28:55 51°16.768 2°53.453 20.3694 4.506801 32.217826 6.834844
2008-07-31 08:29:55 51°16.878 2°53.287 20.3234 4.5013 32.218136 6.660724
2008-07-31 08:30:56 51°16.985 2°53.117 20.2804 4.501923 32.264048 6.486603
2008-07-31 08:31:54 51°17.085 2°52.953 20.237 4.497979 32.258775 6.103539
2008-07-31 08:32:55 51°17.191 2°52.78 20.1904 4.490297 32.235229 5.546354
2008-07-31 08:33:55 51°17.295 2°52.611 20.1703 4.479396 32.182279 4.989169
2008-07-31 08:34:55 51°17.4 2°52.44 20.0713 4.46507 32.097621 4.257864
2008-07-31 08:35:55 51°17.506 2°52.273 19.9949 4.459881 32.135616 3.561383
2008-07-31 08:36:55 51°17.613 2°52.103 19.9819 4.449812 32.095605 3.213142
2008-07-31 08:37:55 51°17.718 2°51.935 19.8956 4.455315 32.176518 2.969374
2008-07-31 08:38:55 51°17.841 2°51.821 19.8357 4.456977 32.224215 2.795254
2008-07-31 08:39:55 51°17.98 2°51.824 19.7249 4.464349 32.347983 2.586309
2008-07-31 08:40:54 51°18.103 2°51.913 19.6511 4.45864 32.379246 2.342541
2008-07-31 08:41:55 51°18.219 2°52.045 19.6214 4.45262 32.379393 2.238069
2008-07-31 08:42:55 51°18.322 2°52.238 19.6045 4.459991 32.456144 2.238069
2008-07-31 08:43:55 51°18.404 2°52.496 19.604 4.448468 32.37618 2.238069
2008-07-31 08:44:55 51°18.469 2°52.779 19.6334 4.45968 32.46082 2.307717
2008-07-31 08:45:55 51°18.533 2°53.063 19.6681 4.455734 32.403518 2.377365
2008-07-31 08:46:55 51°18.564 2°53.36 19.7298 4.451789 32.340936 2.412189
2008-07-31 08:47:55 51°18.514 2°53.656 19.7867 4.450335 32.286188 2.621133
2008-07-31 08:48:55 51°18.436 2°53.943 19.8613 4.443898 32.182354 2.690782
2008-07-31 08:49:55 51°18.365 2°54.192 19.9491 4.438291 32.07499 2.830078
2008-07-31 08:50:55 51°18.31 2°54.378 20.0135 4.437252 32.010766 2.93455
2008-07-31 08:51:55 51°18.266 2°54.558 20.0753 4.439016 31.981632 3.073846
2008-07-31 08:52:54 51°18.229 2°54.736 20.1634 4.441714 31.947849 3.422087
2008-07-31 08:53:55 51°18.214 2°54.814 20.2475 4.445657 31.916063 3.665855
2008-07-31 08:54:56 51°18.195 2°54.795 20.2842 4.450016 31.901092 3.909623
2008-07-31 08:55:57 51°18.173 2°54.771 20.2753 4.451988 31.893708 3.805151
2008-07-31 08:56:58 51°18.168 2°54.765 20.2618 4.450743 31.896478 3.631031
2008-07-31 08:57:56 51°18.169 2°54.771 20.2639 4.450016 31.892976 3.665855
2008-07-31 08:58:55 51°18.169 2°54.773 20.2708 4.450535 31.892497 3.631031
2008-07-31 08:59:54 51°18.168 2°54.769 20.2636 4.450639 31.894488 3.526559
2008-07-31 09:00:55 51°18.168 2°54.765 20.2593 4.450431 31.895723 3.526559
2008-07-31 09:01:54 51°18.169 2°54.766 20.2637 4.45012 31.895546 3.526559
2008-07-31 09:02:55 51°18.17 2°54.766 20.3141 4.451677 31.884265 3.909623
2008-07-31 09:03:54 51°18.17 2°54.766 20.3055 4.45313 31.883743 3.735503
2008-07-31 09:04:55 51°18.169 2°54.765 20.3022 4.453026 31.885806 3.944447
2008-07-31 09:05:54 51°18.169 2°54.766 20.342 4.45313 31.88085 3.700679
2008-07-31 09:06:55 51°18.173 2°54.77 20.3633 4.455932 31.874939 3.805151
2008-07-31 09:07:55 51°18.182 2°54.78 20.3781 4.457281 31.873597 3.770327
2008-07-31 09:08:54 51°18.193 2°54.797 20.3896 4.458527 31.870273 3.979271
2008-07-31 09:09:55 51°18.204 2°54.812 20.3605 4.458942 31.873014 3.874799
2008-07-31 09:10:54 51°18.213 2°54.824 20.3509 4.456451 31.875045 3.805151
2008-07-31 09:11:55 51°18.237 2°54.824 20.3628 4.455828 31.873531 3.735503
2008-07-31 09:12:55 51°18.302 2°54.798 20.3514 4.456658 31.866309 3.979271
2008-07-31 09:13:54 51°18.411 2°54.75 20.2874 4.454375 31.868844 3.909623
2008-07-31 09:14:55 51°18.531 2°54.704 20.2183 4.448355 31.876774 3.526559
2008-07-31 09:15:54 51°18.6 2°54.681 20.1803 4.442127 31.873812 3.387263
2008-07-31 09:16:55 51°18.647 2°54.665 20.1651 4.439844 31.871162 3.28279
2008-07-31 09:17:54 51°18.682 2°54.654 20.1563 4.438495 31.871946 3.213142
2008-07-31 09:18:55 51°18.711 2°54.641 20.1548 4.438287 31.874926 3.10867
2008-07-31 09:19:54 51°18.736 2°54.63 20.1608 4.438391 31.875759 3.039022
2008-07-31 09:20:55 51°18.759 2°54.618 20.1603 4.439117 31.879268 3.004198
2008-07-31 09:21:54 51°18.78 2°54.608 20.1641 4.439429 31.880606 3.004198
2008-07-31 09:22:55 51°18.8 2°54.6 20.166 4.439948 31.881286 3.039022
2008-07-31 09:23:55 51°18.82 2°54.591 20.1696 4.440052 31.882119 3.004198
2008-07-31 09:24:55 51°18.839 2°54.584 20.1732 4.440778 31.883884 3.004198
2008-07-31 09:25:55 51°18.848 2°54.578 20.1786 4.440986 31.884389 2.969374
2008-07-31 09:26:55 51°18.843 2°54.576 20.1496 4.441401 31.885397 3.039022
2008-07-31 09:27:55 51°18.825 2°54.585 20.0479 4.441194 31.919202 2.864902
2008-07-31 09:28:55 51°18.814 2°54.596 20.0345 4.439742 31.974029 2.690782
2008-07-31 09:29:54 51°18.82 2°54.595 20.044 4.4386 31.963668 2.690782
2008-07-31 09:30:55 51°18.824 2°54.593 20.0518 4.438911 31.955073 2.655957
2008-07-31 09:31:55 51°18.828 2°54.592 20.0509 4.4386 31.954904 2.586309
2008-07-31 09:32:55 51°18.83 2°54.593 20.0453 4.438392 31.956738 2.516661
2008-07-31 09:33:54 51°18.831 2°54.594 20.044 4.437873 31.95373 2.516661
2008-07-31 09:34:55 51°18.83 2°54.595 20.0519 4.438289 31.956487 2.516661
2008-07-31 09:35:54 51°18.828 2°54.597 20.0544 4.438911 31.958578 2.516661
2008-07-31 09:36:55 51°18.827 2°54.6 20.0631 4.439223 31.955827 2.481837
2008-07-31 09:37:55 51°18.826 2°54.602 20.0704 4.438807 31.948399 2.447013
2008-07-31 09:38:55 51°18.825 2°54.604 20.0661 4.439119 31.946818 2.412189
2008-07-31 09:39:55 51°18.825 2°54.606 20.0716 4.438911 31.945731 2.412189
2008-07-31 09:40:54 51°18.826 2°54.606 20.0705 4.439119 31.946234 2.412189
2008-07-31 09:41:55 51°18.828 2°54.606 20.0731 4.439326 31.946153 2.481837
2008-07-31 09:42:54 51°18.83 2°54.606 20.0752 4.439326 31.944402 2.447013
2008-07-31 09:43:55 51°18.832 2°54.605 20.08 4.43943 31.942903 2.481837
2008-07-31 09:44:54 51°18.835 2°54.605 20.0824 4.439638 31.941655 2.516661
2008-07-31 09:45:55 51°18.837 2°54.606 20.0849 4.439534 31.939071 2.481837
2008-07-31 09:46:54 51°18.839 2°54.607 20.0897 4.439845 31.939242 2.481837
2008-07-31 09:47:55 51°18.841 2°54.608 20.0952 4.440364 31.939332 2.481837
2008-07-31 09:48:55 51°18.842 2°54.608 20.0988 4.440675 31.938337 2.481837
2008-07-31 09:49:54 51°18.844 2°54.608 20.1004 4.440987 31.939091 2.481837
2008-07-31 09:50:55 51°18.845 2°54.608 20.1035 4.441194 31.938428 2.516661
2008-07-31 09:51:54 51°18.847 2°54.607 20.1211 4.44161 31.937685 2.551485
2008-07-31 09:52:55 51°18.849 2°54.607 20.1671 4.443063 31.930718 2.586309
2008-07-31 09:53:54 51°18.851 2°54.607 20.1792 4.445969 31.92554 2.621133
2008-07-31 09:54:54 51°18.852 2°54.608 20.1992 4.44711 31.923656 2.586309
2008-07-31 09:55:55 51°18.854 2°54.608 20.2253 4.448667 31.921618 2.621133
2008-07-31 09:56:55 51°18.855 2°54.607 20.229 4.450224 31.921326 2.586309
2008-07-31 09:57:55 51°18.857 2°54.607 20.2315 4.450847 31.922255 2.586309
2008-07-31 09:58:54 51°18.858 2°54.606 20.2401 4.451677 31.925429 2.586309
2008-07-31 09:59:55 51°18.859 2°54.605 20.2549 4.453234 31.92688 2.551485
2008-07-31 10:00:54 51°18.86 2°54.605 20.2656 4.454584 31.929569 2.586309
2008-07-31 10:01:55 51°18.861 2°54.604 20.264 4.455622 31.932664 2.621133
2008-07-31 10:02:55 51°18.861 2°54.604 20.2629 4.455933 31.93632 2.551485
2008-07-31 10:03:55 51°18.861 2°54.603 20.2688 4.456452 31.940478 2.516661
2008-07-31 10:04:55 51°18.861 2°54.604 20.2722 4.45749 31.944152 2.481837
2008-07-31 10:05:55 51°18.861 2°54.604 20.2864 4.458944 31.952312 2.412189
2008-07-31 10:06:55 51°18.862 2°54.604 20.2925 4.460916 31.954762 2.447013
2008-07-31 10:07:54 51°18.862 2°54.604 20.3181 4.461746 31.95619 2.377365
2008-07-31 10:08:55 51°18.862 2°54.605 20.3136 4.464237 31.961635 2.342541
2008-07-31 10:09:54 51°18.862 2°54.608 20.3058 4.463822 31.964691 2.586309
2008-07-31 10:10:55 51°18.862 2°54.611 20.2912 4.463096 31.962934 2.481837
2008-07-31 10:11:55 51°18.862 2°54.615 20.2733 4.462888 31.971718 2.272893
2008-07-31 10:12:55 51°18.86 2°54.617 20.2107 4.4632 31.993383 2.272893
2008-07-31 10:13:55 51°18.858 2°54.618 20.0666 4.461333 32.054147 2.342541
2008-07-31 10:14:55 51°18.857 2°54.619 20.0091 4.456351 32.09662 2.412189
2008-07-31 10:15:55 51°18.857 2°54.619 20.0197 4.45438 32.105978 2.481837
2008-07-31 10:16:55 51°18.856 2°54.619 20.0484 4.454483 32.100353 2.481837
2008-07-31 10:17:55 51°18.857 2°54.62 20.0552 4.456144 32.096708 2.516661
2008-07-31 10:18:54 51°18.857 2°54.62 20.0605 4.456663 32.094434 2.586309
2008-07-31 10:19:55 51°18.858 2°54.619 20.0682 4.457182 32.095093 2.621133
2008-07-31 10:20:55 51°18.858 2°54.619 20.0563 4.457908 32.098596 2.690782
2008-07-31 10:21:55 51°18.858 2°54.619 20.0421 4.458116 32.108482 2.725606
2008-07-31 10:22:55 51°18.858 2°54.618 20.0389 4.45822 32.118712 2.76043
2008-07-31 10:23:54 51°18.858 2°54.619 20.0511 4.458428 32.122734 2.76043
2008-07-31 10:24:55 51°18.858 2°54.62 20.064 4.459881 32.120344 2.830078
2008-07-31 10:25:55 51°18.858 2°54.619 20.0429 4.461127 32.133311 2.899726
2008-07-31 10:26:55 51°18.859 2°54.619 20.0354 4.460919 32.142215 2.93455
2008-07-31 10:27:55 51°18.859 2°54.619 20.0498 4.461542 32.148997 2.93455
2008-07-31 10:28:55 51°18.86 2°54.619 20.0801 4.463203 32.147681 3.004198
2008-07-31 10:29:55 51°18.86 2°54.619 20.1241 4.465175 32.136547 3.143494
2008-07-31 10:30:55 51°18.859 2°54.619 20.1328 4.46777 32.133377 3.317614
2008-07-31 10:31:55 51°18.859 2°54.62 20.1397 4.469327 32.141795 3.387263
2008-07-31 10:32:55 51°18.858 2°54.621 20.1588 4.47078 32.144686 3.456911
2008-07-31 10:33:55 51°18.857 2°54.621 20.1823 4.473375 32.147966 3.456911
2008-07-31 10:34:55 51°18.857 2°54.621 20.1906 4.476074 32.155593 3.387263
2008-07-31 10:35:55 51°18.857 2°54.621 20.1968 4.477528 32.164339 3.422087
2008-07-31 10:36:55 51°18.857 2°54.621 20.2067 4.479085 32.170402 3.422087
2008-07-31 10:37:55 51°18.857 2°54.621 20.2234 4.480953 32.177209 3.422087
2008-07-31 10:38:55 51°18.857 2°54.621 20.2214 4.483133 32.18417 3.456911
2008-07-31 10:39:54 51°18.857 2°54.62 20.2399 4.484379 32.194757 3.456911
2008-07-31 10:40:55 51°18.858 2°54.62 20.2584 4.486767 32.194012 3.491735
2008-07-31 10:41:55 51°18.858 2°54.62 20.2835 4.488947 32.200382 3.561383
2008-07-31 10:42:54 51°18.858 2°54.621 20.3053 4.491334 32.201396 3.665855
2008-07-31 10:43:54 51°18.857 2°54.621 20.3333 4.494137 32.204571 3.770327
2008-07-31 10:44:55 51°18.857 2°54.622 20.3239 4.496836 32.212173 3.909623
2008-07-31 10:45:54 51°18.856 2°54.623 20.3299 4.497251 32.219006 3.979271
2008-07-31 10:46:55 51°18.855 2°54.622 20.329 4.498082 32.223322 4.083744
2008-07-31 10:47:55 51°18.855 2°54.622 20.3317 4.498809 32.229729 4.118568
2008-07-31 10:48:55 51°18.855 2°54.622 20.3461 4.499639 32.228783 4.153392
2008-07-31 10:49:55 51°18.855 2°54.623 20.3327 4.500677 32.238268 4.083744
2008-07-31 10:50:55 51°18.855 2°54.622 20.3304 4.501093 32.243349 4.014096
2008-07-31 10:51:55 51°18.856 2°54.623 20.3123 4.501819 32.256192 3.805151
2008-07-31 10:52:55 51°18.857 2°54.623 20.2949 4.50182 32.269657 3.665855
2008-07-31 10:53:55 51°18.857 2°54.623 20.2871 4.501508 32.281224 3.596207
2008-07-31 10:54:55 51°18.857 2°54.623 20.3012 4.502131 32.289152 3.422087
2008-07-31 10:55:55 51°18.857 2°54.624 20.2925 4.504104 32.28914 3.491735
2008-07-31 10:56:55 51°18.852 2°54.624 20.2867 4.504416 32.304539 3.491735
2008-07-31 10:57:55 51°18.855 2°54.624 20.2774 4.504831 32.313152 3.561383
2008-07-31 10:58:55 51°18.855 2°54.624 20.2789 4.505142 32.318586 3.665855
2008-07-31 10:59:55 51°18.855 2°54.624 20.2655 4.505973 32.325837 3.561383
2008-07-31 11:00:55 51°18.855 2°54.624 20.2404 4.505869 32.336754 3.456911
2008-07-31 11:01:55 51°18.854 2°54.625 20.2125 4.505247 32.351748 3.352439
2008-07-31 11:02:55 51°18.854 2°54.625 20.1806 4.504521 32.372411 3.213142
2008-07-31 11:03:55 51°18.855 2°54.625 20.2118 4.504521 32.381844 3.213142
2008-07-31 11:04:55 51°18.855 2°54.625 20.2063 4.507635 32.385654 3.143494
2008-07-31 11:05:55 51°18.854 2°54.625 20.1734 4.508881 32.411594 3.039022
2008-07-31 11:06:54 51°18.853 2°54.626 20.1387 4.509089 32.43512 2.93455
2008-07-31 11:07:55 51°18.852 2°54.627 20.1066 4.508675 32.46551 2.830078
2008-07-31 11:08:55 51°18.852 2°54.627 20.0635 4.506806 32.475352 2.93455
2008-07-31 11:09:55 51°18.853 2°54.627 20.0078 4.504731 32.493044 2.725606
2008-07-31 11:10:55 51°18.852 2°54.627 19.9726 4.50307 32.513542 2.516661
2008-07-31 11:11:55 51°18.852 2°54.627 19.927 4.502863 32.543454 2.307717
2008-07-31 11:12:55 51°18.852 2°54.627 19.8979 4.501306 32.56251 2.203245
2008-07-31 11:13:55 51°18.852 2°54.627 19.8677 4.499645 32.568799 2.133597
2008-07-31 11:14:55 51°18.852 2°54.627 19.8543 4.4984 32.577865 2.168421
2008-07-31 11:15:55 51°18.852 2°54.627 19.8255 4.497466 32.589468 2.098773
2008-07-31 11:16:55 51°18.852 2°54.627 19.8131 4.496739 32.59917 1.959476
2008-07-31 11:17:55 51°18.853 2°54.627 19.7938 4.496428 32.603846 1.959476
2008-07-31 11:18:55 51°18.853 2°54.626 19.7944 4.495494 32.608276 1.959476
2008-07-31 11:19:55 51°18.854 2°54.626 19.7913 4.495494 32.610679 1.9943
2008-07-31 11:20:55 51°18.853 2°54.627 19.7919 4.495494 32.609477 1.9943
2008-07-31 11:21:55 51°18.852 2°54.628 19.7726 4.495806 32.613206 1.9943
2008-07-31 11:22:55 51°18.852 2°54.627 19.7606 4.494768 32.62221 1.959476
2008-07-31 11:23:55 51°18.852 2°54.627 19.7585 4.494456 32.626899 1.924652
2008-07-31 11:24:54 51°18.852 2°54.627 19.7406 4.49456 32.630149 1.889828
2008-07-31 11:25:55 51°18.852 2°54.627 19.7384 4.493522 32.633754 1.924652
2008-07-31 11:26:55 51°18.852 2°54.627 19.7343 4.493522 32.637367 1.889828
2008-07-31 11:27:55 51°18.852 2°54.628 19.7265 4.493834 32.641102 1.924652
2008-07-31 11:28:55 51°18.852 2°54.628 19.7207 4.493419 32.644956 1.889828
2008-07-31 11:29:55 51°18.852 2°54.627 19.7113 4.493211 32.64809 1.889828
2008-07-31 11:30:55 51°18.853 2°54.627 19.7106 4.4929 32.649777 1.924652
2008-07-31 11:31:55 51°18.853 2°54.627 19.7013 4.492692 32.650501 1.924652
2008-07-31 11:32:55 51°18.854 2°54.624 19.7019 4.492381 32.652189 1.924652
2008-07-31 11:33:55 51°18.855 2°54.624 19.6889 4.492485 32.655446 1.959476
2008-07-31 11:34:55 51°18.853 2°54.625 19.6846 4.492069 32.661118 1.959476
2008-07-31 11:35:55 51°18.852 2°54.625 19.6792 4.49155 32.664742 1.9943
2008-07-31 11:36:55 51°18.855 2°54.624 19.7114 4.492381 32.661841 1.9943
2008-07-31 11:37:55 51°18.855 2°54.625 19.7143 4.494457 32.661833 2.029124
2008-07-31 11:38:55 51°18.855 2°54.625 19.7208 4.494976 32.664847 2.029124
2008-07-31 11:39:55 51°18.854 2°54.624 19.7303 4.49591 32.667015 2.029124
2008-07-31 11:40:55 51°18.854 2°54.625 19.7521 4.497675 32.664479 2.029124
2008-07-31 11:41:55 51°18.855 2°54.625 19.7333 4.498194 32.668696 2.029124
2008-07-31 11:42:55 51°18.855 2°54.625 19.7235 4.496948 32.670629 2.063949
2008-07-31 11:43:55 51°18.854 2°54.626 19.7124 4.496326 32.673405 2.029124
2008-07-31 11:44:55 51°18.853 2°54.625 19.7096 4.49591 32.675459 2.029124
2008-07-31 11:45:55 51°18.854 2°54.625 19.7016 4.495807 32.678235 2.063949
2008-07-31 11:46:55 51°18.854 2°54.626 19.6934 4.495495 32.679323 2.063949
2008-07-31 11:47:55 51°18.854 2°54.626 19.6964 4.494976 32.681742 2.063949
2008-07-31 11:48:55 51°18.856 2°54.625 19.7062 4.495392 32.682101 2.029124
2008-07-31 11:49:55 51°18.855 2°54.624 19.7183 4.496949 32.684503 2.029124
2008-07-31 11:50:55 51°18.853 2°54.625 19.7115 4.497883 32.687875 1.9943
2008-07-31 11:51:55 51°18.853 2°54.625 19.7142 4.497675 32.689808 1.9943
2008-07-31 11:52:55 51°18.853 2°54.626 19.6986 4.497883 32.691496 2.029124
2008-07-31 11:53:55 51°18.853 2°54.625 19.7019 4.497364 32.693312 2.029124
2008-07-31 11:54:55 51°18.853 2°54.626 19.6987 4.497364 32.695124 2.029124
2008-07-31 11:55:55 51°18.852 2°54.625 19.6943 4.497053 32.697422 2.029124
2008-07-31 11:56:55 51°18.853 2°54.625 19.69 4.497053 32.69863 2.063949
2008-07-31 11:57:55 51°18.853 2°54.625 19.6996 4.49726 32.699715 2.063949
2008-07-31 11:58:55 51°18.853 2°54.625 19.7029 4.497883 32.702365 2.029124
2008-07-31 11:59:55 51°18.852 2°54.625 19.6915 4.498195 32.704295 2.098773
2008-07-31 12:00:55 51°18.853 2°54.625 19.709 4.498195 32.70369 2.098773
2008-07-31 12:01:55 51°18.853 2°54.625 19.7139 4.499752 32.704275 2.063949
2008-07-31 12:02:55 51°18.853 2°54.625 19.7112 4.499648 32.70645 2.029124
2008-07-31 12:03:55 51°18.852 2°54.625 19.7169 4.500167 32.707048 2.063949
2008-07-31 12:04:55 51°18.852 2°54.625 19.7084 4.500375 32.708132 2.098773
2008-07-31 12:05:55 51°18.852 2°54.626 19.7091 4.499648 32.708262 2.133597
2008-07-31 12:06:55 51°18.852 2°54.625 19.7036 4.49944 32.707178 2.133597
2008-07-31 12:07:55 51°18.852 2°54.625 19.7054 4.499129 32.707665 2.168421
2008-07-31 12:08:55 51°18.852 2°54.625 19.7032 4.499025 32.706217 2.133597
2008-07-31 12:09:55 51°18.852 2°54.626 19.6981 4.498818 32.706944 2.168421
2008-07-31 12:10:55 51°18.852 2°54.626 19.699 4.498195 32.706711 2.168421
2008-07-31 12:11:55 51°18.853 2°54.625 19.6989 4.498714 32.7061 2.168421
2008-07-31 12:12:55 51°18.852 2°54.625 19.701 4.498506 32.706828 2.168421
2008-07-31 12:13:55 51°18.852 2°54.625 19.697 4.498195 32.705503 2.168421
2008-07-31 12:14:55 51°18.852 2°54.625 19.7034 4.498299 32.704535 2.168421
2008-07-31 12:15:55 51°18.852 2°54.625 19.7253 4.498921 32.703561 2.133597
2008-07-31 12:16:55 51°18.852 2°54.625 19.7239 4.50079 32.703056 2.133597
2008-07-31 12:17:55 51°18.853 2°54.626 19.729 4.500582 32.703783 2.168421
2008-07-31 12:18:55 51°18.853 2°54.625 19.7273 4.500997 32.70233 2.133597
2008-07-31 12:19:55 51°18.854 2°54.625 19.7258 4.500478 32.702939 2.168421
2008-07-31 12:20:55 51°18.854 2°54.625 19.737 4.500686 32.699798 2.168421
2008-07-31 12:21:55 51°18.854 2°54.624 19.7476 4.501724 32.699185 2.133597
2008-07-31 12:22:55 51°18.854 2°54.624 19.7381 4.501932 32.698459 2.168421
2008-07-31 12:23:55 51°18.853 2°54.625 19.7318 4.501309 32.698224 2.203245
2008-07-31 12:24:55 51°18.853 2°54.625 19.7227 4.500167 32.698596 2.203245
2008-07-31 12:25:55 51°18.852 2°54.624 19.7165 4.49944 32.698121 2.238069
2008-07-31 12:26:55 51°18.852 2°54.624 19.7169 4.499025 32.696556 2.238069
2008-07-31 12:27:55 51°18.852 2°54.625 19.7181 4.499233 32.697036 2.203245
2008-07-31 12:28:55 51°18.853 2°54.625 19.7307 4.499752 32.695824 2.238069
2008-07-31 12:29:55 51°18.853 2°54.624 19.7356 4.500167 32.696182 2.203245
2008-07-31 12:30:55 51°18.854 2°54.624 19.7424 4.50079 32.695212 2.272893
2008-07-31 12:31:55 51°18.854 2°54.624 19.7448 4.501516 32.696291 2.238069
2008-07-31 12:32:55 51°18.853 2°54.624 19.7415 4.501724 32.696772 2.272893
2008-07-31 12:33:55 51°18.852 2°54.624 19.7298 4.501101 32.696536 2.307717
2008-07-31 12:34:55 51°18.851 2°54.624 19.7344 4.500375 32.69606 2.307717
2008-07-31 12:35:55 51°18.851 2°54.624 19.738 4.500686 32.696178 2.307717
2008-07-31 12:36:55 51°18.852 2°54.624 19.744 4.501309 32.696414 2.307717
2008-07-31 12:37:55 51°18.852 2°54.624 19.744 4.501413 32.696654 2.342541
2008-07-31 12:38:55 51°18.852 2°54.624 19.7409 4.501724 32.696772 2.342541
2008-07-31 12:39:55 51°18.852 2°54.624 19.7482 4.50162 32.697738 2.307717
2008-07-31 12:40:55 51°18.852 2°54.624 19.7642 4.502658 32.69773 2.342541
2008-07-31 12:41:55 51°18.852 2°54.624 19.754 4.503696 32.700133 2.377365
2008-07-31 12:42:55 51°18.852 2°54.624 19.7466 4.502762 32.700382 2.377365
2008-07-31 12:43:55 51°18.852 2°54.624 19.7417 4.501932 32.700269 2.377365
2008-07-31 12:44:55 51°18.852 2°54.623 19.7477 4.502035 32.700509 2.377365
2008-07-31 12:45:55 51°18.853 2°54.623 19.7486 4.502658 32.701951 2.377365
2008-07-31 12:46:55 51°18.853 2°54.623 19.7509 4.50297 32.701466 2.377365
2008-07-31 12:47:55 51°18.853 2°54.624 19.7556 4.503074 32.703516 2.377365
2008-07-31 12:48:55 51°18.853 2°54.624 19.7633 4.504112 32.705316 2.377365
2008-07-31 12:49:55 51°18.853 2°54.624 19.7567 4.504319 32.707605 2.412189
2008-07-31 12:50:55 51°18.852 2°54.625 19.7659 4.504319 32.708812 2.447013
2008-07-31 12:51:55 51°18.852 2°54.624 19.7743 4.505773 32.710365 2.447013
2008-07-31 12:52:55 51°18.852 2°54.624 19.7719 4.506499 32.714459 2.481837
2008-07-31 12:53:55 51°18.852 2°54.624 19.7716 4.506707 32.716748 2.481837
2008-07-31 12:54:55 51°18.852 2°54.624 19.7686 4.506811 32.719401 2.481837
2008-07-31 12:55:55 51°18.852 2°54.623 19.7738 4.507434 32.72265 2.481837
2008-07-31 12:56:55 51°18.852 2°54.623 19.7784 4.508264 32.725777 2.516661
2008-07-31 12:57:55 51°18.852 2°54.623 19.793 4.509303 32.729382 2.551485
2008-07-31 12:58:55 51°18.852 2°54.624 19.7905 4.510548 32.73407 2.551485
2008-07-31 12:59:55 51°18.852 2°54.623 19.7985 4.510964 32.734427 2.551485
2008-07-31 13:00:55 51°18.853 2°54.623 19.8051 4.511898 32.737791 2.586309
2008-07-31 13:01:55 51°18.852 2°54.623 19.8093 4.510652 32.723459 2.586309
2008-07-31 13:02:55 51°18.852 2°54.622 19.8069 4.513351 32.742354 2.621133
2008-07-31 13:03:55 51°18.851 2°54.622 19.8356 4.514597 32.74523 2.621133
2008-07-31 13:04:55 51°18.851 2°54.622 19.8475 4.517089 32.747367 2.621133
2008-07-31 13:05:55 51°18.851 2°54.622 19.8445 4.517608 32.749167 2.690782
2008-07-31 13:06:55 51°18.852 2°54.622 19.8377 4.517608 32.751577 2.655957
2008-07-31 13:07:55 51°18.852 2°54.623 19.8343 4.517192 32.752427 2.621133
2008-07-31 13:08:55 51°18.852 2°54.623 19.832 4.517193 32.753632 2.621133
2008-07-31 13:09:55 51°18.853 2°54.623 19.8366 4.517712 32.759049 2.655957
2008-07-31 13:10:55 51°18.853 2°54.622 19.8384 4.518957 32.764936 2.76043
2008-07-31 13:11:55 51°18.853 2°54.623 19.8398 4.519684 32.770832 2.795254
2008-07-31 13:12:55 51°18.852 2°54.622 19.8412 4.5201 32.774201 2.795254
2008-07-31 13:13:55 51°18.852 2°54.621 19.8531 4.520826 32.777685 2.864902
2008-07-31 13:14:55 51°18.851 2°54.621 19.8675 4.523941 32.787874 2.93455
2008-07-31 13:15:55 51°18.851 2°54.621 19.8766 4.525602 32.792301 3.004198
2008-07-31 13:16:55 51°18.851 2°54.621 19.8805 4.526744 32.798546 3.039022
2008-07-31 13:17:55 51°18.851 2°54.621 19.885 4.527471 32.80263 3.10867
2008-07-31 13:18:55 51°18.852 2°54.622 19.8879 4.528717 32.807304 3.10867
2008-07-31 13:19:55 51°18.852 2°54.622 19.8883 4.529547 32.815243 3.247966
2008-07-31 13:20:55 51°18.852 2°54.622 19.8907 4.530793 32.821724 3.28279
2008-07-31 13:21:55 51°18.852 2°54.623 19.8994 4.532143 32.830856 3.352439
2008-07-31 13:22:55 51°18.852 2°54.623 19.9273 4.535465 32.843911 3.491735
2008-07-31 13:23:55 51°18.852 2°54.623 19.9128 4.538372 32.856007 3.561383
2008-07-31 13:24:55 51°18.851 2°54.622 19.9072 4.536607 32.855579 3.526559
2008-07-31 13:25:55 51°18.852 2°54.621 19.9508 4.538891 32.863832 3.665855
2008-07-31 13:26:55 51°18.852 2°54.619 19.9648 4.544705 32.88499 3.700679
2008-07-31 13:27:55 51°18.852 2°54.618 19.9692 4.546678 32.891313 3.770327
2008-07-31 13:28:55 51°18.851 2°54.618 19.9713 4.547197 32.893104 3.770327
2008-07-31 13:29:55 51°18.852 2°54.618 19.9681 4.547613 32.898275 3.805151
2008-07-31 13:30:55 51°18.853 2°54.619 19.9727 4.548651 32.904269 3.839975
2008-07-31 13:31:55 51°18.854 2°54.619 19.9827 4.549689 32.909055 3.944447
2008-07-31 13:32:55 51°18.855 2°54.619 19.9858 4.551869 32.918259 4.014096
2008-07-31 13:33:55 51°18.856 2°54.619 19.9875 4.552181 32.921383 4.083744
2008-07-31 13:34:55 51°18.855 2°54.619 19.9853 4.553946 32.93386 4.188216
2008-07-31 13:35:55 51°18.855 2°54.619 19.9858 4.554361 32.937825 4.292688
2008-07-31 13:36:55 51°18.856 2°54.619 20.0218 4.556438 32.949804 4.466808
2008-07-31 13:37:55 51°18.856 2°54.62 20.0673 4.563291 32.974467 4.710577
2008-07-31 13:38:55 51°18.856 2°54.62 20.0952 4.570662 32.997267 4.919521
2008-07-31 13:39:55 51°18.856 2°54.621 20.1229 4.573362 33.008226 5.023993
2008-07-31 13:40:55 51°18.856 2°54.621 20.183 4.580941 33.026638 5.720474
2008-07-31 13:41:55 51°18.855 2°54.621 20.1732 4.585406 33.042786 5.616002
2008-07-31 13:42:55 51°18.854 2°54.621 20.1722 4.585302 33.044358 5.581178
2008-07-31 13:43:55 51°18.854 2°54.622 20.1962 4.586133 33.047445 5.650826
2008-07-31 13:44:55 51°18.854 2°54.621 20.2025 4.589871 33.062537 5.929418
2008-07-31 13:45:55 51°18.855 2°54.621 20.2078 4.591844 33.07182 6.103539
2008-07-31 13:46:55 51°18.855 2°54.621 20.2321 4.594024 33.083378 6.242835
2008-07-31 13:47:55 51°18.856 2°54.62 20.2366 4.597036 33.090787 6.451779
2008-07-31 13:48:55 51°18.856 2°54.62 20.2459 4.598282 33.09842 6.451779
2008-07-31 13:49:55 51°18.856 2°54.62 20.2735 4.59932 33.097755 6.695548
2008-07-31 13:50:55 51°18.857 2°54.622 20.2924 4.602227 33.098905 7.043788
2008-07-31 13:51:55 51°18.857 2°54.622 20.3016 4.604096 33.100119 7.252733
2008-07-31 13:52:56 51°18.857 2°54.621 20.3083 4.605134 33.101863 7.287557
2008-07-31 13:53:55 51°18.857 2°54.621 20.3094 4.605861 33.102903 7.496501
2008-07-31 13:54:55 51°18.857 2°54.621 20.3117 4.605965 33.103138 7.496501
2008-07-31 13:55:55 51°18.857 2°54.62 20.3235 4.606588 33.103943 7.670621
2008-07-31 13:56:55 51°18.857 2°54.62 20.3386 4.607938 33.102785 7.775093
2008-07-31 13:57:55 51°18.857 2°54.619 20.3465 4.608872 33.103094 7.984038
2008-07-31 13:58:55 51°18.857 2°54.62 20.3572 4.609911 33.103637 8.018862
2008-07-31 13:59:55 51°18.857 2°54.619 20.3467 4.609495 33.097896 8.158158
2008-07-31 14:00:55 51°18.858 2°54.618 20.3426 4.609703 33.104969 8.053686
2008-07-31 14:01:55 51°18.858 2°54.618 20.3469 4.609495 33.105702 8.158158
2008-07-31 14:02:55 51°18.858 2°54.618 20.363 4.610222 33.104941 8.43675
2008-07-31 14:03:55 51°18.858 2°54.617 20.3653 4.611468 33.108354 8.506398
2008-07-31 14:04:55 51°18.858 2°54.616 20.3783 4.612091 33.10856 8.784991
2008-07-31 14:05:56 51°18.858 2°54.616 20.3797 4.613752 33.11111 8.959111
2008-07-31 14:06:55 51°18.853 2°54.615 20.3933 4.614168 33.113847 8.993935
2008-07-31 14:07:55 51°18.848 2°54.608 20.3999 4.615933 33.117831 9.411824
2008-07-31 14:08:55 51°18.851 2°54.597 20.4087 4.616556 33.119236 9.655592
2008-07-31 14:09:55 51°18.857 2°54.586 20.4074 4.617491 33.121344 9.620768
2008-07-31 14:10:55 51°18.863 2°54.578 20.4099 4.617698 33.122413 9.760064
2008-07-31 14:11:55 51°18.866 2°54.566 20.4054 4.617906 33.122881 9.446648
2008-07-31 14:12:55 51°18.834 2°54.558 20.3992 4.618425 33.125252 9.446648
2008-07-31 14:13:55 51°18.803 2°54.639 20.4153 4.617595 33.131179 10.386897
2008-07-31 14:14:55 51°18.792 2°54.725 20.4498 4.621125 33.134937 11.431619
2008-07-31 14:15:55 51°18.789 2°54.788 20.4411 4.622994 33.134953 11.710211
2008-07-31 14:16:54 51°18.787 2°54.839 20.433 4.620917 33.129072 11.257499
2008-07-31 14:17:55 51°18.784 2°54.883 20.4606 4.620709 33.117815 11.396795
2008-07-31 14:18:54 51°18.78 2°54.92 20.4821 4.624551 33.128877 11.919156
2008-07-31 14:19:55 51°18.776 2°54.954 20.4752 4.625382 33.127157 11.814684
2008-07-31 14:20:55 51°18.773 2°54.986 20.4721 4.624448 33.126846 11.675387
2008-07-31 14:21:55 51°18.771 2°55.017 20.495 4.62424 33.122186 11.745035
2008-07-31 14:22:55 51°18.77 2°55.047 20.5078 4.62642 33.117531 12.441517
2008-07-31 14:23:55 51°18.769 2°55.077 20.5092 4.627563 33.125492 12.406692
2008-07-31 14:24:56 51°18.767 2°55.106 20.5366 4.629951 33.138055 12.789757
2008-07-31 14:25:55 51°18.767 2°55.121 20.5905 4.636597 33.163788 13.973775
2008-07-31 14:26:55 51°18.767 2°55.134 20.5972 4.643035 33.185441 15.227441
2008-07-31 14:27:55 51°18.766 2°55.146 20.5739 4.643658 33.18983 14.914024
2008-07-31 14:28:55 51°18.766 2°55.155 20.5931 4.641478 33.181342 14.8792
2008-07-31 14:29:55 51°18.767 2°55.161 20.5924 4.646255 33.206425 14.948848
2008-07-31 14:30:55 51°18.769 2°55.166 20.5859 4.649059 33.232463 14.739904
2008-07-31 14:31:54 51°18.771 2°55.17 20.5852 4.651655 33.256846 14.461312
2008-07-31 14:32:55 51°18.794 2°55.224 20.6178 4.653525 33.272415 14.496136
2008-07-31 14:33:56 51°18.862 2°55.178 20.617 4.66474 33.322626 16.829347
2008-07-31 14:34:55 51°18.808 2°55.065 20.6389 4.664221 33.329868 17.28206
2008-07-31 14:35:55 51°18.671 2°54.863 20.7858 4.664948 33.311101 1.889828
2008-07-31 14:36:55 51°18.536 2°54.626 20.8881 2.378076 15.814416 -1.209513
2008-07-31 14:37:56 51°18.392 2°54.396 20.949 2.36278 15.70315 -1.209513
2008-07-31 14:38:55 51°18.238 2°54.206 21.0176 2.358336 15.669723 -1.209513
2008-07-31 14:39:55 51°18.073 2°54.03 21.0825 2.356786 15.657617 -1.174688
2008-07-31 14:40:55 51°17.913 2°53.842 21.1393 2.351618 15.619507 -1.174688
2008-07-31 14:41:55 51°17.761 2°53.648 21.2073 2.342213 15.548142 -1.174688
2008-07-31 14:42:56 51°17.592 2°53.482 21.2667 2.344177 15.554645 -1.139864
2008-07-31 14:43:55 51°17.419 2°53.344 21.3145 2.351514 15.600973 -1.139864
2008-07-31 14:44:55 51°17.238 2°53.23 21.382 2.348207 15.569495 -1.174688
2008-07-31 14:45:55 51°17.055 2°53.134 21.4474 2.34552 15.543928 -1.174688
2008-07-31 14:46:55 51°16.865 2°53.071 21.5088 2.34738 15.550783 -1.174688
2008-07-31 14:47:55 51°16.67 2°53.015 21.5657 2.353891 15.592989 -1.174688
2008-07-31 14:48:55 51°16.473 2°53.035 21.6284 2.343246 15.509537 -1.174688
2008-07-31 14:49:55 51°16.282 2°53.127 21.675 2.350273 15.555458 -1.209513
2008-07-31 14:50:55 51°16.095 2°53.237 21.7364 2.347069 15.527306 -1.209513
2008-07-31 14:51:55 51°15.915 2°53.374 21.7826 2.347069 15.521528 -1.174688
2008-07-31 14:52:55 51°15.734 2°53.508 21.842 2.349963 15.537782 -1.209513
2008-07-31 14:53:56 51°15.549 2°53.643 21.9007 2.35172 15.544983 -1.244337
2008-07-31 14:54:55 51°15.384 2°53.772 21.9409 2.350583 15.530988 -1.209513
2008-07-31 14:55:56 51°15.216 2°53.902 22.0155 2.35668 15.56928 -1.174688
2008-07-31 14:56:55 51°15.126 2°54.041 22.0614 2.353476 15.53953 -1.209513
2008-07-31 14:57:56 51°15.049 2°54.2 22.1025 2.355543 15.547863 -1.209513
2008-07-31 14:58:55 51°14.966 2°54.348 22.1598 2.354199 15.530752 -1.209513
2008-07-31 14:59:55 51°14.873 2°54.483 22.2287 2.353683 15.519075 -1.209513
2008-07-31 15:00:55 51°14.783 2°54.604 22.2668 2.356783 15.532941 -1.209513
2008-07-31 15:01:55 51°14.714 2°54.692 22.3186 2.360193 15.549306 -1.209513
2008-07-31 15:02:55 51°14.648 2°54.777 22.4244 2.350168 15.468074 -1.209513
2008-07-31 15:03:55 51°14.544 2°54.903 22.4146 2.347378 15.439828 -1.244337
2008-07-31 15:04:55 51°14.419 2°55.065 22.4624 2.359469 15.520023 -1.209513
2008-07-31 15:05:55 51°14.329 2°55.187 22.5219 2.355542 15.48441 -1.244337
2008-07-31 15:06:56 51°14.218 2°55.328 22.5357 2.351924 15.449709 -1.244337
2008-07-31 15:07:58 51°14.113 2°55.417 22.5812 2.359779 15.499081 -1.244337